Terminal Aerodrome Forecast
Issued by NWS Nashville, TN

Home | Current Version | Previous Version | Text Only | Print | Product List | Glossary On
Versions: 1 2 3 4 5 6 7 8 9 10 11 12 13 14 15 16 17 18 19 20 21 22 23 24
000
FTUS44 KOHX 280500
TAFCSV
TAF
KCSV 280525Z 2806/2906 33007KT P6SM OVC016
     FM280800 33003KT P6SM SCT016
     FM281000 18003KT P6SM BKN120
     FM281700 20004KT P6SM SKC
     FM290000 19004KT P6SM BKN200=

USA.gov is the U.S. government's official web portal to all federal, state and local government web resources and services.